createdAt,value
2022-08-30T00:01:36.273Z,20.56
2022-08-30T00:04:06.629Z,20.48
2022-08-30T00:06:33.924Z,20.52
2022-08-30T00:09:01.086Z,20.45
2022-08-30T00:11:29.423Z,20.43
2022-08-30T00:13:58.340Z,20.36
2022-08-30T00:16:27.173Z,20.25
2022-08-30T00:18:55.280Z,20.19
2022-08-30T00:21:23.613Z,20.13
2022-08-30T00:23:51.268Z,20.26
2022-08-30T00:26:18.135Z,20.11
2022-08-30T00:28:45.370Z,20.02
2022-08-30T00:31:15.132Z,20.03
2022-08-30T00:33:43.549Z,19.97
2022-08-30T00:36:10.779Z,19.95
2022-08-30T00:38:37.833Z,19.92
2022-08-30T00:41:05.264Z,19.96
2022-08-30T00:43:36.760Z,19.90
2022-08-30T00:46:07.915Z,19.89
2022-08-30T00:48:40.759Z,19.82
2022-08-30T00:51:11.554Z,19.75
2022-08-30T00:53:42.766Z,19.73
2022-08-30T00:56:11.631Z,19.73
2022-08-30T00:58:42.947Z,19.67
2022-08-30T01:01:10.937Z,19.68
2022-08-30T01:03:39.640Z,19.61
2022-08-30T01:06:07.919Z,19.59
2022-08-30T01:08:35.777Z,19.61
2022-08-30T01:11:04.622Z,19.57
2022-08-30T01:13:34.303Z,19.52
2022-08-30T01:16:03.092Z,19.52
2022-08-30T01:18:32.300Z,19.44
2022-08-30T01:21:07.957Z,19.50
2022-08-30T01:23:38.672Z,19.41
2022-08-30T01:26:07.285Z,19.39
2022-08-30T01:28:35.464Z,19.30
2022-08-30T01:31:03.427Z,19.30
2022-08-30T01:33:31.268Z,19.27
2022-08-30T01:36:03.632Z,19.31
2022-08-30T01:38:39.808Z,19.26
2022-08-30T01:41:21.539Z,19.23
2022-08-30T01:43:51.191Z,19.03
2022-08-30T01:46:20.808Z,19.01
2022-08-30T01:48:54.031Z,18.94
2022-08-30T01:51:25.600Z,18.96
2022-08-30T01:53:53.501Z,18.92
2022-08-30T01:56:21.272Z,18.95
2022-08-30T01:58:48.181Z,19.02
2022-08-30T02:01:20.128Z,18.92
2022-08-30T02:03:48.988Z,18.93
2022-08-30T02:06:19.768Z,18.82
2022-08-30T02:08:47.874Z,18.86
2022-08-30T02:11:16.366Z,18.77
2022-08-30T02:13:45.255Z,18.74
2022-08-30T02:16:16.430Z,18.80
2022-08-30T02:18:44.149Z,18.78
2022-08-30T02:21:12.802Z,18.80
2022-08-30T02:23:40.023Z,18.79
2022-08-30T02:26:07.402Z,18.75
2022-08-30T02:28:34.908Z,18.75
2022-08-30T02:31:10.321Z,18.75
2022-08-30T02:33:40.379Z,18.82
2022-08-30T02:36:08.948Z,18.82
2022-08-30T02:38:36.716Z,18.74
2022-08-30T02:41:03.941Z,18.74
2022-08-30T02:43:31.287Z,18.69
2022-08-30T02:45:58.839Z,18.64
2022-08-30T02:48:26.003Z,18.58
2022-08-30T02:50:53.948Z,18.56
2022-08-30T02:53:21.788Z,18.57
2022-08-30T02:55:50.036Z,18.52
2022-08-30T02:58:17.223Z,18.50
2022-08-30T03:00:44.488Z,18.52
2022-08-30T03:03:11.728Z,18.49
2022-08-30T03:05:39.948Z,18.47
2022-08-30T03:08:08.316Z,18.53
2022-08-30T03:10:36.542Z,18.48
2022-08-30T03:13:04.024Z,18.45
2022-08-30T03:15:31.219Z,18.43
2022-08-30T03:17:58.814Z,18.49
2022-08-30T03:20:26.141Z,18.41
2022-08-30T03:22:53.673Z,18.38
2022-08-30T03:25:22.057Z,18.35
2022-08-30T03:27:50.962Z,18.33
2022-08-30T03:30:21.027Z,18.31
2022-08-30T03:32:48.451Z,18.36
2022-08-30T03:35:16.529Z,18.33
2022-08-30T03:37:44.337Z,18.27
2022-08-30T03:40:11.525Z,18.31
2022-08-30T03:42:45.593Z,18.22
2022-08-30T03:45:14.738Z,18.25
2022-08-30T03:47:42.090Z,18.34
2022-08-30T03:50:10.624Z,18.28
2022-08-30T03:52:37.984Z,18.28
2022-08-30T03:55:05.820Z,18.26
2022-08-30T03:57:32.751Z,18.20
2022-08-30T04:00:01.665Z,18.16
2022-08-30T04:02:29.364Z,18.21
2022-08-30T04:04:56.146Z,18.20
2022-08-30T04:07:23.418Z,18.19
2022-08-30T04:09:50.419Z,18.20
2022-08-30T04:12:20.475Z,18.24
2022-08-30T04:14:50.291Z,18.28
2022-08-30T04:17:17.278Z,18.34
2022-08-30T04:19:44.559Z,18.46
2022-08-30T04:22:11.727Z,18.46
2022-08-30T04:24:38.959Z,18.50
2022-08-30T04:27:06.302Z,18.53
2022-08-30T04:29:34.215Z,18.60
2022-08-30T04:32:01.955Z,18.62
2022-08-30T04:34:29.070Z,18.73
2022-08-30T04:36:56.143Z,18.70
2022-08-30T04:39:24.540Z,18.77
2022-08-30T04:41:51.730Z,18.85
2022-08-30T04:44:19.637Z,18.91
2022-08-30T04:46:49.212Z,18.99
2022-08-30T04:49:16.302Z,19.02
2022-08-30T04:51:43.401Z,19.01
2022-08-30T04:54:10.400Z,19.03
2022-08-30T04:56:37.503Z,19.10
2022-08-30T04:59:04.804Z,19.21
2022-08-30T05:01:45.237Z,19.30
2022-08-30T05:04:13.963Z,19.40
2022-08-30T05:06:41.234Z,19.47
2022-08-30T05:09:08.491Z,19.63
2022-08-30T05:11:35.546Z,19.81
2022-08-30T05:14:02.687Z,20.03
2022-08-30T05:16:29.826Z,20.14
2022-08-30T05:18:56.892Z,20.30
2022-08-30T05:21:27.069Z,20.54
2022-08-30T05:24:00.255Z,20.78
2022-08-30T05:26:32.645Z,21.05
2022-08-30T05:29:00.152Z,21.31
2022-08-30T05:31:31.023Z,21.60
2022-08-30T05:33:59.616Z,21.80
2022-08-30T05:36:29.210Z,22.06
2022-08-30T05:38:57.436Z,22.33
2022-08-30T05:41:26.536Z,22.61
2022-08-30T05:43:59.233Z,22.83
2022-08-30T05:46:29.734Z,23.08
2022-08-30T05:48:57.694Z,23.28
2022-08-30T05:51:26.799Z,23.48
2022-08-30T05:53:55.567Z,23.53
2022-08-30T05:56:26.845Z,23.67
2022-08-30T05:58:55.369Z,23.91
2022-08-30T06:01:29.562Z,24.17
2022-08-30T06:04:03.005Z,24.22
2022-08-30T06:06:35.913Z,24.42
2022-08-30T06:09:05.967Z,24.56
2022-08-30T06:11:34.324Z,24.62
2022-08-30T06:14:02.650Z,24.68
2022-08-30T06:16:30.216Z,24.77
2022-08-30T06:18:58.473Z,24.88
2022-08-30T06:21:28.927Z,24.90
2022-08-30T06:23:57.277Z,24.97
2022-08-30T06:26:25.938Z,25.03
2022-08-30T06:28:53.082Z,25.21
2022-08-30T06:31:22.394Z,25.32
2022-08-30T06:33:50.409Z,25.56
2022-08-30T06:36:23.294Z,25.80
2022-08-30T06:38:52.442Z,26.00
2022-08-30T06:41:25.317Z,26.19
2022-08-30T06:43:52.911Z,26.49
2022-08-30T06:46:23.922Z,26.80
2022-08-30T06:48:51.381Z,27.10
2022-08-30T06:51:22.862Z,27.39
2022-08-30T06:53:50.879Z,27.67
2022-08-30T06:56:19.498Z,28.00
2022-08-30T06:58:47.326Z,28.17
2022-08-30T07:01:21.436Z,28.35
2022-08-30T07:03:48.768Z,28.34
2022-08-30T07:06:16.232Z,28.66
2022-08-30T07:08:47.274Z,28.77
2022-08-30T07:11:15.295Z,28.83
2022-08-30T07:13:42.177Z,28.87
2022-08-30T07:16:11.865Z,29.04
2022-08-30T07:18:50.958Z,29.24
2022-08-30T07:21:21.403Z,29.45
2022-08-30T07:23:53.304Z,29.66
2022-08-30T07:26:26.932Z,29.87
2022-08-30T07:28:55.878Z,30.08
2022-08-30T07:31:23.655Z,30.13
2022-08-30T07:33:51.147Z,30.10
2022-08-30T07:36:18.278Z,30.29
2022-08-30T07:38:46.998Z,30.26
2022-08-30T07:41:23.798Z,30.20
2022-08-30T07:43:51.180Z,30.20
2022-08-30T07:46:19.443Z,30.52
2022-08-30T07:48:46.704Z,30.65
2022-08-30T07:51:15.212Z,30.63
2022-08-30T07:53:42.410Z,30.59
2022-08-30T07:56:09.574Z,30.71
2022-08-30T07:58:38.271Z,30.65
2022-08-30T08:01:07.726Z,30.82
2022-08-30T08:03:35.529Z,30.97
2022-08-30T08:06:05.161Z,31.08
2022-08-30T08:08:32.393Z,30.94
2022-08-30T08:10:59.499Z,30.92
2022-08-30T08:13:27.310Z,30.89
2022-08-30T08:15:55.992Z,30.89
2022-08-30T08:18:23.110Z,30.95
2022-08-30T08:20:50.086Z,31.05
2022-08-30T08:23:22.042Z,31.25
2022-08-30T08:25:49.076Z,31.51
2022-08-30T08:28:16.367Z,31.44
2022-08-30T08:30:48.039Z,31.56
2022-08-30T08:33:15.700Z,31.76
2022-08-30T08:35:43.181Z,31.85
2022-08-30T08:38:10.489Z,31.82
2022-08-30T08:41:07.100Z,31.97
2022-08-30T08:43:37.573Z,32.18
2022-08-30T08:46:16.116Z,32.28
2022-08-30T08:49:05.756Z,32.04
2022-08-30T08:51:54.467Z,31.94
2022-08-30T08:54:47.375Z,32.16
2022-08-30T08:57:16.610Z,31.97
2022-08-30T08:59:45.956Z,31.94
2022-08-30T09:02:22.711Z,32.05
2022-08-30T09:04:51.201Z,32.26
2022-08-30T09:07:23.226Z,32.33
2022-08-30T09:09:50.849Z,32.48
2022-08-30T09:12:18.719Z,32.58
2022-08-30T09:14:55.579Z,32.46
2022-08-30T09:17:23.847Z,32.59
2022-08-30T09:19:54.363Z,32.77
2022-08-30T09:22:40.527Z,32.51
2022-08-30T09:25:08.531Z,32.55
2022-08-30T09:27:35.298Z,32.69
2022-08-30T09:30:27.518Z,32.75
2022-08-30T09:32:56.047Z,32.77
2022-08-30T09:35:24.592Z,32.80
2022-08-30T09:37:58.530Z,32.99
2022-08-30T09:40:32.956Z,33.17
2022-08-30T09:43:26.338Z,32.94
2022-08-30T09:46:01.264Z,32.88
2022-08-30T09:48:44.396Z,32.70
2022-08-30T09:51:11.654Z,32.34
2022-08-30T09:54:18.458Z,32.36
2022-08-30T09:56:51.698Z,32.09
2022-08-30T09:59:30.740Z,31.99
2022-08-30T10:02:11.580Z,31.93
2022-08-30T10:04:48.709Z,32.10
2022-08-30T10:07:32.932Z,32.27
2022-08-30T10:10:06.513Z,32.38
2022-08-30T10:13:06.830Z,32.39
2022-08-30T10:15:47.032Z,32.59
2022-08-30T10:18:26.506Z,32.45
2022-08-30T10:21:04.909Z,32.33
2022-08-30T10:23:56.906Z,32.44
2022-08-30T10:27:16.473Z,32.56
2022-08-30T10:29:50.125Z,32.61
2022-08-30T10:32:34.032Z,32.43
2022-08-30T10:35:10.044Z,32.48
2022-08-30T10:37:52.591Z,32.71
2022-08-30T10:40:46.123Z,32.97
2022-08-30T10:43:26.678Z,33.01
2022-08-30T10:46:00.145Z,32.85
2022-08-30T10:48:40.735Z,32.95
2022-08-30T10:51:28.332Z,32.88
2022-08-30T10:54:04.385Z,33.03
2022-08-30T10:56:32.060Z,32.73
2022-08-30T10:59:00.085Z,32.86
2022-08-30T11:01:46.766Z,32.60
2022-08-30T11:04:49.908Z,32.45
2022-08-30T11:08:04.335Z,32.08
2022-08-30T11:10:56.092Z,31.96
2022-08-30T11:13:30.034Z,31.60
2022-08-30T11:16:07.261Z,31.43
2022-08-30T11:18:51.195Z,31.62
2022-08-30T11:21:35.611Z,32.03
2022-08-30T11:24:13.984Z,32.24
2022-08-30T11:26:49.531Z,32.27
2022-08-30T11:29:44.061Z,32.39
2022-08-30T11:32:14.588Z,32.51
2022-08-30T11:34:47.824Z,32.70
2022-08-30T11:37:38.695Z,32.45
2022-08-30T11:40:28.996Z,32.24
2022-08-30T11:42:57.225Z,31.98
2022-08-30T11:45:24.988Z,31.83
2022-08-30T11:48:07.675Z,31.58
2022-08-30T11:50:45.285Z,31.55
2022-08-30T11:53:45.494Z,31.83
2022-08-30T11:56:50.161Z,32.15
2022-08-30T11:59:25.885Z,32.06
2022-08-30T12:01:53.223Z,31.78
2022-08-30T12:04:20.020Z,31.55
2022-08-30T12:06:49.055Z,31.58
2022-08-30T12:09:29.403Z,31.33
2022-08-30T12:12:33.805Z,31.14
2022-08-30T12:15:01.658Z,31.31
2022-08-30T12:18:15.783Z,31.49
2022-08-30T12:20:46.146Z,31.50
2022-08-30T12:23:20.025Z,31.54
2022-08-30T12:25:48.123Z,31.70
2022-08-30T12:28:24.720Z,31.98
2022-08-30T12:30:53.345Z,32.18
2022-08-30T12:33:36.576Z,32.14
2022-08-30T12:36:14.474Z,32.04
2022-08-30T12:38:41.957Z,31.86
2022-08-30T12:41:20.070Z,31.61
2022-08-30T12:43:52.338Z,31.43
2022-08-30T12:46:21.411Z,31.20
2022-08-30T12:48:49.639Z,31.04
2022-08-30T12:51:36.483Z,30.76
2022-08-30T12:54:20.257Z,30.47
2022-08-30T12:56:54.940Z,30.22
2022-08-30T12:59:42.205Z,30.07
2022-08-30T13:02:23.240Z,29.91
2022-08-30T13:04:52.239Z,29.86
2022-08-30T13:07:33.347Z,29.95
2022-08-30T13:10:21.003Z,30.14
2022-08-30T13:13:05.609Z,30.16
2022-08-30T13:15:36.203Z,30.30
2022-08-30T13:18:35.192Z,30.45
2022-08-30T13:21:27.079Z,30.71
2022-08-30T13:24:00.275Z,30.82
2022-08-30T13:26:32.133Z,30.65
2022-08-30T13:29:02.487Z,30.54
2022-08-30T13:31:30.968Z,30.45
2022-08-30T13:33:58.788Z,30.59
2022-08-30T13:36:35.299Z,30.57
2022-08-30T13:39:03.429Z,30.44
2022-08-30T13:41:34.361Z,30.15
2022-08-30T13:44:13.449Z,29.89
2022-08-30T13:46:46.355Z,29.86
2022-08-30T13:49:43.524Z,29.82
2022-08-30T13:52:26.011Z,29.90
2022-08-30T13:54:56.814Z,29.88
2022-08-30T14:00:19.911Z,29.49
2022-08-30T14:02:54.654Z,29.25
2022-08-30T14:05:48.795Z,29.00
2022-08-30T14:11:12.782Z,28.90
2022-08-30T14:16:31.703Z,28.70
2022-08-30T14:19:00.446Z,28.64
2022-08-30T14:21:28.482Z,28.53
2022-08-30T14:23:57.697Z,28.35
2022-08-30T14:26:32.900Z,28.15
2022-08-30T14:29:05.566Z,27.99
2022-08-30T14:31:38.072Z,27.90
2022-08-30T14:34:06.115Z,27.79
2022-08-30T14:36:34.714Z,27.67
2022-08-30T14:39:02.734Z,27.58
2022-08-30T14:41:38.902Z,27.49
2022-08-30T14:44:08.587Z,27.38
2022-08-30T14:46:38.034Z,27.29
2022-08-30T14:49:04.981Z,27.21
2022-08-30T14:51:33.160Z,27.14
2022-08-30T14:54:01.077Z,27.10
2022-08-30T14:56:28.367Z,27.10
2022-08-30T14:59:00.763Z,27.03
2022-08-30T15:01:29.000Z,26.96
2022-08-30T15:03:57.554Z,26.89
2022-08-30T15:06:26.308Z,26.83
2022-08-30T15:08:55.114Z,26.77
2022-08-30T15:11:25.944Z,26.68
2022-08-30T15:13:54.370Z,26.69
2022-08-30T15:16:24.728Z,26.59
2022-08-30T15:18:52.648Z,26.51
2022-08-30T15:21:30.878Z,26.46
2022-08-30T15:24:00.997Z,26.42
2022-08-30T15:26:28.827Z,26.39
2022-08-30T15:28:56.772Z,26.38
2022-08-30T15:31:28.358Z,26.31
2022-08-30T15:33:56.602Z,26.23
2022-08-30T15:36:24.805Z,26.20
2022-08-30T15:38:56.083Z,26.16
2022-08-30T15:41:24.080Z,26.12
2022-08-30T15:43:53.086Z,26.10
2022-08-30T15:46:30.757Z,26.13
2022-08-30T15:49:18.405Z,26.10
2022-08-30T15:51:47.259Z,26.06
2022-08-30T15:54:18.291Z,26.04
2022-08-30T15:56:46.254Z,25.96
2022-08-30T15:59:15.602Z,25.94
2022-08-30T16:01:44.133Z,25.85
2022-08-30T16:04:11.775Z,25.81
2022-08-30T16:06:39.015Z,25.76
2022-08-30T16:09:08.536Z,25.60
2022-08-30T16:11:36.895Z,25.60
2022-08-30T16:14:05.503Z,25.50
2022-08-30T16:16:33.198Z,25.42
2022-08-30T16:19:02.365Z,25.35
2022-08-30T16:21:30.637Z,25.26
2022-08-30T16:24:00.266Z,25.13
2022-08-30T16:26:29.200Z,25.07
2022-08-30T16:28:56.700Z,25.00
2022-08-30T16:31:26.116Z,24.93
2022-08-30T16:33:54.731Z,24.88
2022-08-30T16:36:26.556Z,24.81
2022-08-30T16:38:58.372Z,24.72
2022-08-30T16:41:26.436Z,24.63
2022-08-30T16:43:54.049Z,24.54
2022-08-30T16:46:25.596Z,24.49
2022-08-30T16:48:57.236Z,24.36
2022-08-30T16:51:26.800Z,24.37
2022-08-30T16:53:59.300Z,24.19
2022-08-30T16:56:29.767Z,24.02
2022-08-30T16:59:02.075Z,24.01
2022-08-30T17:01:32.454Z,23.87
2022-08-30T17:04:03.060Z,23.77
2022-08-30T17:06:30.663Z,23.72
2022-08-30T17:08:59.449Z,23.63
2022-08-30T17:11:26.991Z,23.57
2022-08-30T17:17:04.224Z,23.31
2022-08-30T17:19:32.174Z,23.22
2022-08-30T17:22:01.221Z,23.16
2022-08-30T17:24:28.424Z,23.04
2022-08-30T17:26:55.848Z,23.05
2022-08-30T17:29:23.167Z,22.98
2022-08-30T17:31:51.727Z,22.93
2022-08-30T17:34:21.922Z,22.90
2022-08-30T17:36:53.497Z,22.79
2022-08-30T17:39:21.206Z,22.64
2022-08-30T17:41:50.174Z,22.60
2022-08-30T17:44:19.367Z,22.50
2022-08-30T17:46:47.012Z,22.48
2022-08-30T17:49:15.103Z,22.43
2022-08-30T17:51:43.082Z,22.32
2022-08-30T17:54:13.045Z,22.27
2022-08-30T17:56:41.631Z,22.25
2022-08-30T17:59:11.024Z,22.13
2022-08-30T18:01:38.947Z,22.04
2022-08-30T18:04:06.593Z,21.94
2022-08-30T18:06:35.060Z,21.97
2022-08-30T18:09:04.407Z,21.93
2022-08-30T18:11:36.327Z,21.92
2022-08-30T18:14:04.852Z,21.80
2022-08-30T18:16:37.690Z,21.75
2022-08-30T18:19:06.415Z,21.69
2022-08-30T18:21:37.764Z,21.69
2022-08-30T18:24:06.165Z,21.62
2022-08-30T18:26:33.732Z,21.57
2022-08-30T18:29:00.681Z,21.55
2022-08-30T18:33:55.177Z,21.49
2022-08-30T18:36:22.200Z,21.40
2022-08-30T18:38:49.807Z,21.38
2022-08-30T18:41:17.007Z,21.36
2022-08-30T18:43:44.740Z,21.34
2022-08-30T18:46:14.808Z,21.30
2022-08-30T18:48:42.850Z,21.26
2022-08-30T18:51:15.555Z,21.20
2022-08-30T18:53:43.324Z,21.28
2022-08-30T18:56:11.682Z,21.27
2022-08-30T18:58:44.490Z,21.16
2022-08-30T19:01:12.703Z,21.19
2022-08-30T19:03:40.445Z,21.13
2022-08-30T19:06:11.766Z,21.14
2022-08-30T19:08:40.524Z,21.13
2022-08-30T19:11:09.257Z,21.12
2022-08-30T19:13:37.741Z,21.14
2022-08-30T19:16:07.533Z,21.22
2022-08-30T19:18:39.859Z,21.18
2022-08-30T19:21:07.138Z,21.21
2022-08-30T19:23:41.192Z,21.11
2022-08-30T19:26:08.370Z,21.10
2022-08-30T19:28:38.495Z,21.12
2022-08-30T19:31:06.408Z,21.08
2022-08-30T19:33:37.599Z,21.11
2022-08-30T19:36:05.718Z,21.15
2022-08-30T19:38:35.867Z,21.09
2022-08-30T19:41:03.892Z,21.12
2022-08-30T19:43:31.281Z,21.08
2022-08-30T19:46:00.322Z,21.02
2022-08-30T19:48:32.172Z,21.02
2022-08-30T19:51:06.839Z,21.02
2022-08-30T19:53:35.027Z,20.98
2022-08-30T19:56:02.188Z,21.00
2022-08-30T19:58:30.414Z,20.99
2022-08-30T20:00:57.802Z,20.94
2022-08-30T20:03:28.347Z,20.89
2022-08-30T20:05:55.345Z,20.86
2022-08-30T20:08:22.447Z,20.86
2022-08-30T20:10:49.967Z,20.87
2022-08-30T20:13:19.452Z,20.90
2022-08-30T20:15:58.435Z,20.99
2022-08-30T20:18:26.691Z,20.95
2022-08-30T20:20:53.841Z,20.94
2022-08-30T20:23:24.153Z,20.89
2022-08-30T20:25:54.853Z,20.98
2022-08-30T20:28:24.341Z,21.02
2022-08-30T20:30:52.599Z,20.99
2022-08-30T20:33:20.941Z,20.98
2022-08-30T20:35:49.783Z,20.97
2022-08-30T20:38:22.599Z,20.99
2022-08-30T20:40:56.962Z,20.94
2022-08-30T20:43:26.744Z,20.97
2022-08-30T20:45:55.487Z,20.90
2022-08-30T20:48:23.625Z,20.93
2022-08-30T20:50:50.728Z,20.99
2022-08-30T20:53:17.765Z,21.07
2022-08-30T20:55:47.352Z,21.11
2022-08-30T20:58:14.947Z,21.10
2022-08-30T21:00:45.659Z,21.12
2022-08-30T21:03:27.596Z,21.14
2022-08-30T21:05:56.348Z,21.17
2022-08-30T21:08:23.779Z,21.14
2022-08-30T21:10:51.416Z,21.07
2022-08-30T21:13:18.646Z,21.08
2022-08-30T21:15:46.535Z,21.03
2022-08-30T21:18:14.519Z,20.98
2022-08-30T21:20:42.052Z,21.05
2022-08-30T21:23:09.642Z,21.04
2022-08-30T21:25:43.405Z,21.03
2022-08-30T21:28:10.988Z,21.02
2022-08-30T21:30:38.026Z,20.98
2022-08-30T21:33:06.831Z,20.87
2022-08-30T21:35:52.899Z,20.81
2022-08-30T21:38:20.406Z,20.76
2022-08-30T21:40:49.119Z,20.77
2022-08-30T21:43:16.709Z,20.79
2022-08-30T21:45:45.617Z,20.77
2022-08-30T21:48:14.164Z,20.74
2022-08-30T21:50:43.181Z,20.79
2022-08-30T21:53:10.968Z,20.80
2022-08-30T21:55:43.661Z,20.74
2022-08-30T21:58:11.116Z,20.78
2022-08-30T22:00:38.129Z,20.76
2022-08-30T22:03:05.411Z,20.77
2022-08-30T22:05:32.386Z,20.76
2022-08-30T22:07:59.918Z,20.72
2022-08-30T22:10:31.122Z,20.75
2022-08-30T22:13:00.027Z,20.74
2022-08-30T22:15:27.194Z,20.76
2022-08-30T22:17:54.343Z,20.75
2022-08-30T22:20:21.444Z,20.63
2022-08-30T22:22:48.572Z,20.58
2022-08-30T22:25:15.615Z,20.62
2022-08-30T22:27:43.024Z,20.64
2022-08-30T22:30:10.819Z,20.66
2022-08-30T22:32:38.563Z,20.68
2022-08-30T22:35:06.885Z,20.61
2022-08-30T22:37:34.305Z,20.61
2022-08-30T22:40:01.660Z,20.54
2022-08-30T22:42:28.912Z,20.56
2022-08-30T22:44:55.990Z,20.56
2022-08-30T22:47:23.204Z,20.60
2022-08-30T22:49:50.629Z,20.44
2022-08-30T22:52:17.705Z,20.44
2022-08-30T22:54:51.327Z,20.34
2022-08-30T22:57:20.121Z,20.29
2022-08-30T22:59:47.563Z,20.27
2022-08-30T23:02:14.753Z,20.25
2022-08-30T23:04:42.040Z,20.22
2022-08-30T23:07:09.236Z,20.26
2022-08-30T23:09:36.303Z,20.20
2022-08-30T23:12:03.860Z,20.10
2022-08-30T23:14:30.977Z,20.10
2022-08-30T23:16:58.452Z,20.15
2022-08-30T23:19:27.013Z,20.08
2022-08-30T23:21:54.146Z,20.11
2022-08-30T23:24:39.493Z,20.03
2022-08-30T23:27:25.313Z,19.94
2022-08-30T23:30:10.870Z,19.98
2022-08-30T23:32:56.493Z,19.79
2022-08-30T23:35:42.574Z,19.77
2022-08-30T23:38:28.098Z,19.69
2022-08-30T23:41:13.856Z,19.78
2022-08-30T23:43:59.434Z,19.70
2022-08-30T23:46:45.233Z,19.67
2022-08-30T23:49:30.883Z,19.58
2022-08-30T23:52:16.459Z,19.55
2022-08-30T23:55:02.066Z,19.58
2022-08-30T23:57:47.703Z,19.48
